Terminal Aerodrome Forecast
Issued by NWS

Home | Current Version | Previous Version | Text Only | Print | Product List | Glossary On
Versions: 1 2 3 4 5 6 7 8 9 10 11 12 13 14 15 16 17 18 19 20 21 22 23 24 25 26 27 28 29 30 31 32 33
000
FTUS41 KBOX 041720
TAFACK
TAF
KACK 041720Z 0418/0518 25013KT 2SM -SHRA BR OVC005
     FM050100 25010KT 4SM -RA BR OVC003
     FM050400 28008KT 3SM -RASN OVC003
     FM050600 30007KT 1/2SM SNRAPL OVC003
     FM050800 30008KT 1/2SM SNPL OVC003
     FM051200 33012KT 1SM -SN OVC008=

USA.gov is the U.S. government's official web portal to all federal, state and local government web resources and services.